Time;durP1;ratioP1;P1;durP2;ratioP2;P2;SDS_P1;SDS_P2;PMS_P1;PMS_P2;Temp;Humidity;BMP_temperature;BMP_pressure;BME280_temperature;BME280_humidity;BME280_pressure;Samples;Min_cycle;Max_cycle;Signal;HPM_P1;HPM_P2
2022/07/08 00:02:11;;;;;;;4.13;0.88;;;16.90;65.90;;;;;;5012878;28;20072;-46
2022/07/08 00:04:37;;;;;;;4.65;1.30;;;17.00;66.00;;;;;;5012807;28;20081;-46
2022/07/08 00:07:03;;;;;;;3.10;0.85;;;17.00;66.00;;;;;;5011606;28;20087;-38
2022/07/08 00:09:29;;;;;;;2.40;0.90;;;17.00;66.00;;;;;;5013531;28;20037;-38
2022/07/08 00:11:56;;;;;;;3.47;0.82;;;17.00;66.10;;;;;;5012029;28;20057;-39
2022/07/08 00:14:23;;;;;;;5.32;0.98;;;16.90;66.00;;;;;;5011847;28;20396;-39
2022/07/08 00:16:49;;;;;;;3.25;0.90;;;17.00;66.20;;;;;;5011751;28;20029;-39
2022/07/08 00:19:16;;;;;;;4.38;0.90;;;16.90;66.10;;;;;;5013069;28;20511;-39
2022/07/08 00:21:44;;;;;;;4.18;1.20;;;16.90;66.20;;;;;;5013576;28;20461;-40
2022/07/08 00:24:11;;;;;;;2.00;0.90;;;16.90;66.30;;;;;;5013208;28;20034;-39
2022/07/08 00:26:38;;;;;;;2.60;0.98;;;16.80;66.40;;;;;;5013141;28;20149;-39
2022/07/08 00:29:03;;;;;;;5.93;1.00;;;16.80;66.50;;;;;;5012782;28;20022;-39
2022/07/08 00:31:29;;;;;;;4.72;1.00;;;16.80;66.60;;;;;;5013128;28;20105;-39
2022/07/08 00:33:55;;;;;;;4.05;1.02;;;16.80;66.70;;;;;;5013139;28;20029;-38
2022/07/08 00:36:20;;;;;;;3.55;0.98;;;16.70;66.80;;;;;;5012889;28;20097;-40
2022/07/08 00:38:46;;;;;;;4.80;1.25;;;16.70;66.90;;;;;;5012750;28;20113;-40
2022/07/08 00:41:12;;;;;;;2.13;0.80;;;16.60;67.60;;;;;;5012700;28;20480;-39
2022/07/08 00:43:40;;;;;;;3.75;1.02;;;16.60;67.10;;;;;;5013764;28;20037;-39
2022/07/08 00:46:07;;;;;;;2.97;1.33;;;16.50;67.10;;;;;;5016413;28;20029;-39
2022/07/08 00:48:33;;;;;;;2.60;0.95;;;16.60;67.30;;;;;;5016361;28;20022;-39
2022/07/08 00:51:00;;;;;;;4.65;1.00;;;16.50;67.30;;;;;;5016342;28;20030;-40
2022/07/08 00:53:28;;;;;;;4.72;1.00;;;16.50;67.30;;;;;;5016509;28;20026;-38
2022/07/08 00:55:54;;;;;;;4.32;0.95;;;16.50;67.40;;;;;;5016524;28;20048;-38
2022/07/08 00:58:20;;;;;;;4.03;1.02;;;16.50;67.50;;;;;;5016267;28;20037;-37
2022/07/08 01:00:47;;;;;;;5.63;1.15;;;16.40;67.50;;;;;;5016294;28;20058;-40
2022/07/08 01:03:13;;;;;;;4.13;1.10;;;16.40;67.50;;;;;;5016533;28;20454;-39
2022/07/08 01:05:38;;;;;;;3.80;1.05;;;16.50;67.50;;;;;;5016341;28;20030;-40
2022/07/08 01:08:04;;;;;;;6.65;1.05;;;16.40;67.40;;;;;;5015907;28;20428;-38
2022/07/08 01:10:30;;;;;;;3.92;1.10;;;16.50;67.50;;;;;;5016126;28;20026;-39
2022/07/08 01:12:56;;;;;;;5.47;1.50;;;16.50;67.50;;;;;;5014546;28;20029;-39
2022/07/08 01:15:23;;;;;;;4.65;1.13;;;16.50;67.50;;;;;;5016081;28;20022;-39
2022/07/08 01:17:48;;;;;;;3.22;1.05;;;16.50;67.50;;;;;;5015982;28;20056;-39
2022/07/08 01:20:15;;;;;;;4.13;1.27;;;16.50;68.20;;;;;;5015953;28;20501;-39
2022/07/08 01:22:41;;;;;;;5.13;1.20;;;16.50;67.60;;;;;;5016011;28;20032;-40
2022/07/08 01:25:08;;;;;;;3.38;1.42;;;16.40;67.60;;;;;;5014325;28;20022;-39
2022/07/08 01:27:34;;;;;;;4.43;1.00;;;16.50;67.70;;;;;;5015637;28;20025;-39
2022/07/08 01:30:00;;;;;;;3.67;0.90;;;16.40;67.70;;;;;;5015557;28;20030;-39
2022/07/08 01:32:33;;;;;;;2.92;1.10;;;16.40;67.80;;;;;;5014437;28;20026;-39
2022/07/08 01:34:58;;;;;;;2.90;1.00;;;16.40;67.80;;;;;;5015602;28;20022;-38
2022/07/08 01:37:24;;;;;;;5.50;1.20;;;16.40;67.90;;;;;;5015564;28;20091;-39
2022/07/08 01:39:50;;;;;;;3.60;1.00;;;16.40;67.90;;;;;;5015698;28;20018;-39
2022/07/08 01:42:15;;;;;;;4.93;1.20;;;16.30;68.00;;;;;;5015771;28;20036;-39
2022/07/08 01:44:41;;;;;;;2.53;1.00;;;16.30;68.10;;;;;;5015442;28;20033;-39
2022/07/08 01:47:07;;;;;;;3.72;1.10;;;16.20;68.10;;;;;;5015360;28;20030;-40
2022/07/08 01:49:32;;;;;;;4.75;1.10;;;16.20;68.30;;;;;;5015464;28;20525;-39
2022/07/08 01:51:59;;;;;;;3.35;1.08;;;16.20;68.40;;;;;;5015615;28;20108;-38
2022/07/08 01:54:24;;;;;;;4.07;0.90;;;16.20;68.30;;;;;;5015101;28;20048;-39
2022/07/08 01:57:13;;;;;;;4.47;1.13;;;16.20;68.30;;;;;;5014455;28;20488;-39
2022/07/08 01:59:36;;;;;;;5.63;1.00;;;16.20;68.30;;;;;;5014892;28;20061;-39
2022/07/08 02:02:02;;;;;;;3.22;0.95;;;16.20;68.30;;;;;;5015281;28;20032;-40
2022/07/08 02:04:27;;;;;;;3.40;1.00;;;16.20;68.30;;;;;;5013516;28;20046;-39
2022/07/08 02:06:53;;;;;;;3.03;1.05;;;16.20;68.30;;;;;;5014879;28;20363;-38
2022/07/08 02:09:19;;;;;;;5.40;1.10;;;16.20;68.30;;;;;;5014796;28;20034;-39
2022/07/08 02:14:28;;;;;;;3.10;1.00;;;16.20;68.30;;;;;;5015230;28;20033;-39
2022/07/08 02:16:54;;;;;;;3.03;1.10;;;16.20;68.30;;;;;;5015216;28;20026;-38
2022/07/08 02:19:19;;;;;;;3.65;0.85;;;16.30;68.30;;;;;;5015385;28;20030;-40
2022/07/08 02:21:45;;;;;;;4.97;0.90;;;16.30;68.30;;;;;;5013626;28;20065;-39
2022/07/08 02:24:10;;;;;;;2.67;1.15;;;16.30;68.30;;;;;;5015105;28;20076;-39
2022/07/08 02:26:36;;;;;;;2.67;1.00;;;16.20;68.30;;;;;;5015107;28;20022;-39
2022/07/08 02:29:01;;;;;;;2.70;1.00;;;16.20;68.30;;;;;;5014592;28;20097;-39
2022/07/08 02:31:27;;;;;;;3.97;0.98;;;16.20;68.40;;;;;;5014819;28;20088;-39
2022/07/08 02:33:52;;;;;;;3.90;0.88;;;16.20;68.40;;;;;;5014583;28;20028;-38
2022/07/08 02:36:18;;;;;;;3.75;1.00;;;16.10;68.50;;;;;;5014568;28;20370;-40
2022/07/08 02:38:44;;;;;;;2.08;0.80;;;16.10;68.50;;;;;;5013275;28;20026;-39
2022/07/08 02:41:09;;;;;;;3.47;1.02;;;16.10;68.70;;;;;;5014218;28;20117;-38
2022/07/08 02:43:35;;;;;;;5.07;1.17;;;16.00;68.60;;;;;;5014289;28;20022;-39
2022/07/08 02:46:00;;;;;;;5.05;1.65;;;15.90;68.70;;;;;;5014177;28;20053;-39
2022/07/08 02:48:26;;;;;;;3.88;1.10;;;15.90;68.90;;;;;;5014408;28;20033;-39
2022/07/08 02:50:52;;;;;;;6.18;1.45;;;15.80;68.90;;;;;;5014339;28;20462;-37
2022/07/08 02:53:17;;;;;;;4.78;1.05;;;15.80;69.10;;;;;;5012778;28;20526;-39
2022/07/08 02:55:43;;;;;;;4.30;1.00;;;15.80;69.20;;;;;;5014125;28;20097;-39
2022/07/08 02:58:08;;;;;;;5.03;1.20;;;15.80;69.20;;;;;;5014338;28;20018;-44
2022/07/08 03:00:34;;;;;;;3.20;1.25;;;15.70;69.30;;;;;;5014046;28;20148;-39
2022/07/08 03:02:59;;;;;;;3.13;0.95;;;15.70;69.40;;;;;;5014008;28;20033;-38
2022/07/08 03:05:25;;;;;;;4.10;1.08;;;15.70;69.50;;;;;;5013886;28;20045;-39
2022/07/08 03:07:51;;;;;;;4.13;1.02;;;15.70;69.70;;;;;;5013709;28;20021;-38
2022/07/08 03:10:16;;;;;;;4.13;1.00;;;15.60;69.70;;;;;;5013918;28;20418;-39
2022/07/08 03:12:42;;;;;;;3.47;1.25;;;15.60;69.90;;;;;;5013860;28;20096;-38
2022/07/08 03:15:08;;;;;;;5.20;1.20;;;15.50;69.80;;;;;;5013673;28;20389;-40
2022/07/08 03:17:34;;;;;;;4.57;1.20;;;15.50;69.90;;;;;;5013900;28;20363;-39
2022/07/08 03:19:59;;;;;;;4.70;0.93;;;15.50;70.00;;;;;;5013939;28;20030;-38
2022/07/08 03:22:25;;;;;;;4.55;1.20;;;15.40;70.20;;;;;;5013573;28;20021;-39
2022/07/08 03:24:51;;;;;;;3.20;0.93;;;15.40;70.30;;;;;;5013507;28;20064;-39
2022/07/08 03:27:16;;;;;;;5.22;1.10;;;15.40;70.40;;;;;;5012143;28;20033;-39
2022/07/08 03:29:42;;;;;;;5.10;1.20;;;15.40;70.50;;;;;;5013465;28;20026;-39
2022/07/08 03:32:07;;;;;;;6.35;1.60;;;15.40;70.60;;;;;;5013434;28;20022;-38
2022/07/08 03:34:33;;;;;;;3.90;1.40;;;15.40;70.70;;;;;;5013581;28;20436;-39
2022/07/08 03:36:59;;;;;;;3.25;1.17;;;15.30;70.70;;;;;;5013380;28;20157;-39
2022/07/08 03:39:25;;;;;;;4.05;0.93;;;15.30;70.80;;;;;;5013321;28;20026;-39
2022/07/08 03:41:50;;;;;;;2.10;1.00;;;15.30;70.80;;;;;;5013298;28;20088;-39
2022/07/08 03:44:16;;;;;;;3.47;1.20;;;15.30;70.90;;;;;;5013454;28;20132;-39
2022/07/08 03:46:41;;;;;;;2.60;0.90;;;15.30;71.00;;;;;;5011922;28;20038;-39
2022/07/08 03:49:07;;;;;;;2.40;0.95;;;15.30;71.10;;;;;;5013464;28;20026;-39
2022/07/08 03:51:33;;;;;;;4.22;1.10;;;15.20;71.20;;;;;;5013419;28;20099;-39
2022/07/08 03:53:59;;;;;;;4.20;1.40;;;15.20;71.40;;;;;;5013518;28;20425;-40
2022/07/08 03:56:25;;;;;;;5.13;1.20;;;15.10;71.40;;;;;;5011881;28;20021;-38
2022/07/08 03:58:50;;;;;;;3.83;1.40;;;15.10;71.50;;;;;;5013432;28;20446;-39
2022/07/08 04:01:16;;;;;;;3.72;1.27;;;15.10;71.60;;;;;;5011957;28;20049;-39
2022/07/08 04:03:42;;;;;;;3.88;1.10;;;15.10;71.70;;;;;;5013122;28;20046;-40
2022/07/08 04:06:07;;;;;;;3.88;1.05;;;15.10;71.80;;;;;;5013380;28;20362;-42
2022/07/08 04:08:33;;;;;;;4.75;1.30;;;15.10;71.90;;;;;;5013210;28;20030;-40
2022/07/08 04:10:58;;;;;;;3.47;1.08;;;15.10;71.90;;;;;;5011813;28;20029;-39
2022/07/08 04:13:27;;;;;;;5.93;1.30;;;15.10;72.00;;;;;;5012172;28;20473;-39
2022/07/08 04:15:53;;;;;;;4.47;1.30;;;15.10;72.10;;;;;;5013397;28;20045;-38
2022/07/08 04:18:19;;;;;;;3.42;1.00;;;15.10;72.20;;;;;;5014078;28;20022;-39
2022/07/08 04:20:44;;;;;;;9.95;1.60;;;15.10;72.30;;;;;;5017386;28;20030;-39
2022/07/08 04:23:10;;;;;;;7.13;1.42;;;15.10;72.40;;;;;;5017354;28;20382;-39
2022/07/08 04:25:36;;;;;;;5.43;1.30;;;15.10;72.50;;;;;;5015859;28;20434;-39
2022/07/08 04:28:02;;;;;;;4.75;1.30;;;15.10;72.50;;;;;;5016872;28;20034;-38
2022/07/08 04:30:28;;;;;;;3.83;1.27;;;15.10;72.50;;;;;;5017004;28;20387;-37
2022/07/08 04:32:54;;;;;;;4.05;1.30;;;15.10;72.60;;;;;;5016956;28;20014;-39
2022/07/08 04:35:19;;;;;;;8.60;1.65;;;15.10;72.60;;;;;;5016596;28;20029;-39
2022/07/08 04:37:45;;;;;;;6.13;1.48;;;15.10;72.70;;;;;;5015622;28;20466;-39
2022/07/08 04:40:11;;;;;;;5.93;1.40;;;15.20;72.60;;;;;;5016522;28;20034;-38
2022/07/08 04:42:36;;;;;;;6.22;1.40;;;15.20;72.60;;;;;;5016897;28;20025;-38
2022/07/08 04:45:03;;;;;;;6.22;1.30;;;15.20;72.70;;;;;;5016474;28;20075;-39
2022/07/08 04:47:29;;;;;;;5.82;1.23;;;15.30;73.30;;;;;;5016726;28;20022;-38
2022/07/08 04:49:54;;;;;;;5.72;1.50;;;15.30;72.70;;;;;;5016299;28;20484;-38
2022/07/08 04:52:20;;;;;;;4.65;1.35;;;15.30;72.60;;;;;;5016920;28;20053;-47
2022/07/08 04:54:45;;;;;;;4.93;1.40;;;15.40;72.70;;;;;;5016440;28;20025;-39
2022/07/08 04:57:11;;;;;;;5.40;1.65;;;15.30;72.70;;;;;;5016257;28;20025;-38
2022/07/08 04:59:36;;;;;;;3.97;1.27;;;15.30;72.70;;;;;;5016515;28;20030;-39
2022/07/08 05:02:02;;;;;;;6.95;1.42;;;15.40;72.90;;;;;;5016371;28;20030;-39
2022/07/08 05:04:28;;;;;;;5.43;1.17;;;15.40;72.90;;;;;;5016209;28;20557;-39
2022/07/08 05:06:54;;;;;;;6.30;1.30;;;15.30;73.00;;;;;;5014732;28;20052;-37
2022/07/08 05:09:19;;;;;;;7.15;1.92;;;15.30;73.10;;;;;;5014714;28;20425;-38
2022/07/08 05:11:45;;;;;;;6.03;1.40;;;15.30;73.10;;;;;;5016457;28;20026;-41
2022/07/08 05:14:13;;;;;;;5.50;1.30;;;15.30;73.20;;;;;;5016148;28;20384;-39
2022/07/08 05:16:40;;;;;;;5.57;1.40;;;15.20;73.30;;;;;;5016097;28;20010;-38
2022/07/08 05:19:06;;;;;;;4.38;1.45;;;15.20;73.40;;;;;;5015037;28;20045;-39
2022/07/08 05:21:31;;;;;;;5.72;1.35;;;15.20;73.50;;;;;;5016227;28;20148;-39
2022/07/08 05:23:57;;;;;;;6.53;1.58;;;15.20;73.50;;;;;;5015970;28;20556;-39
2022/07/08 05:26:22;;;;;;;4.85;1.20;;;15.20;73.50;;;;;;5016007;28;20045;-39
2022/07/08 05:28:48;;;;;;;5.57;1.67;;;15.30;73.60;;;;;;5014574;28;20037;-43
2022/07/08 05:31:13;;;;;;;4.63;1.63;;;15.30;73.60;;;;;;5014308;28;20060;-39
2022/07/08 05:33:39;;;;;;;5.55;1.67;;;15.30;73.50;;;;;;5015542;28;20026;-39
2022/07/08 05:36:06;;;;;;;7.10;1.70;;;15.40;73.60;;;;;;5016078;28;20030;-39
2022/07/08 05:38:32;;;;;;;5.95;1.67;;;15.40;73.60;;;;;;5016159;28;20076;-39
2022/07/08 05:40:58;;;;;;;6.45;1.60;;;15.50;73.60;;;;;;5015514;28;20038;-39
2022/07/08 05:43:23;;;;;;;5.15;1.50;;;15.50;73.60;;;;;;5015525;28;20029;-39
2022/07/08 05:45:49;;;;;;;5.82;1.50;;;15.60;73.70;;;;;;5015726;28;20032;-39
2022/07/08 05:48:14;;;;;;;6.10;1.45;;;15.60;73.60;;;;;;5016022;28;20477;-39
2022/07/08 05:50:40;;;;;;;9.07;1.67;;;15.60;73.50;;;;;;5015712;28;20026;-39
2022/07/08 05:53:05;;;;;;;3.60;1.25;;;15.60;73.50;;;;;;5014297;28;20113;-49
2022/07/08 05:55:31;;;;;;;4.55;1.23;;;15.70;73.70;;;;;;5016035;28;20026;-39
2022/07/08 05:57:56;;;;;;;5.68;1.20;;;15.70;73.70;;;;;;5015845;28;20068;-39
2022/07/08 06:00:22;;;;;;;5.65;1.40;;;15.70;73.60;;;;;;5015211;28;20026;-39
2022/07/08 06:02:49;;;;;;;5.70;1.30;;;15.70;73.60;;;;;;5015156;28;20030;-39
2022/07/08 06:05:15;;;;;;;5.47;1.30;;;15.70;73.90;;;;;;5014947;28;20489;-39
2022/07/08 06:07:41;;;;;;;7.05;1.27;;;15.70;73.60;;;;;;5015479;28;20037;-41
2022/07/08 06:10:07;;;;;;;4.82;1.58;;;15.80;73.60;;;;;;5014815;28;20045;-39
2022/07/08 06:12:32;;;;;;;4.82;1.20;;;15.90;73.60;;;;;;5014949;28;20021;-39
2022/07/08 06:14:58;;;;;;;4.18;1.10;;;16.00;73.50;;;;;;5014899;28;20393;-39
2022/07/08 06:17:24;;;;;;;5.03;1.48;;;16.20;73.40;;;;;;5015025;28;20018;-39
2022/07/08 06:19:49;;;;;;;8.85;1.60;;;16.30;73.00;;;;;;5015016;28;20026;-39
2022/07/08 06:22:15;;;;;;;4.13;1.48;;;16.50;72.80;;;;;;5014943;28;20030;-39
2022/07/08 06:24:41;;;;;;;4.18;1.33;;;16.60;72.50;;;;;;5014943;28;20068;-39
2022/07/08 06:27:06;;;;;;;4.70;1.10;;;16.80;72.30;;;;;;5014992;28;20032;-38
2022/07/08 06:29:32;;;;;;;5.90;1.42;;;16.90;72.10;;;;;;5015115;28;20050;-39
2022/07/08 06:31:58;;;;;;;5.00;1.30;;;17.00;71.80;;;;;;5014671;28;20021;-39
2022/07/08 06:34:23;;;;;;;3.70;1.23;;;17.10;71.60;;;;;;5014632;28;20072;-39
2022/07/08 06:36:49;;;;;;;5.13;1.33;;;17.20;71.40;;;;;;5014605;28;20081;-40
2022/07/08 06:39:15;;;;;;;5.30;1.20;;;17.30;71.30;;;;;;5014558;28;20033;-39
2022/07/08 06:41:41;;;;;;;4.35;1.27;;;17.50;71.10;;;;;;5014381;28;20072;-39
2022/07/08 06:44:06;;;;;;;4.60;1.40;;;17.60;70.90;;;;;;5014386;28;20318;-40
2022/07/08 06:46:32;;;;;;;3.65;1.27;;;17.60;70.70;;;;;;5014272;28;20014;-39
2022/07/08 06:48:58;;;;;;;6.32;1.27;;;17.70;70.50;;;;;;5014438;28;20060;-39
2022/07/08 06:51:24;;;;;;;6.25;1.40;;;17.80;70.40;;;;;;5012798;28;20024;-40
2022/07/08 06:56:34;;;;;;;8.23;1.40;;;17.80;70.10;;;;;;5014533;28;20365;-40
2022/07/08 06:58:59;;;;;;;4.53;1.30;;;17.90;70.00;;;;;;5013892;28;20030;-39
2022/07/08 07:01:25;;;;;;;5.97;1.90;;;18.00;70.00;;;;;;5014148;28;20030;-40
2022/07/08 07:03:50;;;;;;;6.97;1.60;;;18.00;69.80;;;;;;5013656;28;20069;-39
2022/07/08 07:06:16;;;;;;;9.45;2.70;;;18.00;69.80;;;;;;5014306;28;20033;-39
2022/07/08 07:08:42;;;;;;;5.43;1.80;;;18.10;69.80;;;;;;5012473;28;20473;-39
2022/07/08 07:11:08;;;;;;;13.48;2.88;;;18.10;69.50;;;;;;5014018;28;20388;-39
2022/07/08 07:13:33;;;;;;;4.60;1.30;;;18.10;69.50;;;;;;5013941;28;20037;-39
2022/07/08 07:15:59;;;;;;;5.50;1.10;;;18.20;69.40;;;;;;5013609;28;20058;-40
2022/07/08 07:18:25;;;;;;;3.53;1.20;;;18.20;69.30;;;;;;5013532;28;20022;-39
2022/07/08 07:20:51;;;;;;;4.47;1.27;;;18.30;69.20;;;;;;5013490;28;20392;-39
2022/07/08 07:23:17;;;;;;;5.57;1.30;;;18.30;69.00;;;;;;5013667;28;20109;-39
2022/07/08 07:25:42;;;;;;;3.33;1.10;;;18.30;69.00;;;;;;5013377;28;20029;-43
2022/07/08 07:28:08;;;;;;;9.55;1.65;;;18.30;69.10;;;;;;5013547;28;20026;-38
2022/07/08 07:30:33;;;;;;;3.67;1.08;;;18.30;69.80;;;;;;5013509;28;20022;-39
2022/07/08 07:32:59;;;;;;;5.43;1.30;;;18.30;69.10;;;;;;5012089;28;20094;-39
2022/07/08 07:35:25;;;;;;;4.88;1.38;;;18.30;69.00;;;;;;5012123;28;20025;-38
2022/07/08 07:37:50;;;;;;;3.20;1.02;;;18.40;69.00;;;;;;5013698;28;20029;-39
2022/07/08 07:40:16;;;;;;;4.90;1.40;;;18.50;68.80;;;;;;5013734;28;20030;-38
2022/07/08 07:42:41;;;;;;;6.70;1.30;;;18.60;68.70;;;;;;5013059;28;20055;-38
2022/07/08 07:45:07;;;;;;;7.03;1.50;;;18.60;68.60;;;;;;5013045;28;20119;-39
2022/07/08 07:47:33;;;;;;;5.40;1.30;;;18.70;68.30;;;;;;5013261;28;20350;-39
2022/07/08 07:49:58;;;;;;;4.00;1.25;;;18.80;68.20;;;;;;5012938;28;20105;-37
2022/07/08 07:52:24;;;;;;;2.90;0.90;;;18.70;68.00;;;;;;5011581;28;20045;-39
2022/07/08 07:54:50;;;;;;;3.88;1.15;;;18.70;68.00;;;;;;5012416;28;20100;-40
2022/07/08 07:57:16;;;;;;;4.35;1.30;;;18.70;67.90;;;;;;5012789;28;20030;-38
2022/07/08 07:59:42;;;;;;;3.38;1.10;;;18.70;67.80;;;;;;5012897;28;20030;-39
2022/07/08 08:02:08;;;;;;;6.07;1.20;;;18.70;67.70;;;;;;5012692;28;20120;-39
2022/07/08 08:04:34;;;;;;;3.80;0.82;;;18.70;67.70;;;;;;5012688;28;20038;-39
2022/07/08 08:06:59;;;;;;;3.55;1.15;;;18.80;67.60;;;;;;5012799;28;20057;-39
2022/07/08 08:09:25;;;;;;;5.80;0.95;;;18.80;67.40;;;;;;5012590;28;20447;-39
2022/07/08 08:11:51;;;;;;;3.05;1.00;;;18.80;67.10;;;;;;5012667;28;20581;-39
2022/07/08 08:14:16;;;;;;;4.38;1.50;;;18.90;66.70;;;;;;5012989;28;20034;-38
2022/07/08 08:16:42;;;;;;;4.82;1.20;;;18.90;66.70;;;;;;5012535;28;20032;-39
2022/07/08 08:19:07;;;;;;;4.63;1.25;;;19.00;66.60;;;;;;5012637;28;20030;-39
2022/07/08 08:21:35;;;;;;;4.35;1.10;;;19.10;66.60;;;;;;5012721;28;20029;-39
2022/07/08 08:24:00;;;;;;;3.45;1.13;;;19.10;66.30;;;;;;5012807;28;20029;-40
2022/07/08 08:26:26;;;;;;;5.97;1.30;;;19.20;66.30;;;;;;5012858;28;20374;-39
2022/07/08 08:28:52;;;;;;;5.90;1.45;;;19.20;66.30;;;;;;5012596;28;20034;-37
2022/07/08 08:31:17;;;;;;;4.47;1.50;;;19.30;66.20;;;;;;5011323;28;20054;-39
2022/07/08 08:33:43;;;;;;;4.53;1.40;;;19.30;65.70;;;;;;5012989;28;20018;-42
2022/07/08 08:36:09;;;;;;;6.05;1.50;;;19.40;65.50;;;;;;5012628;28;20109;-38
2022/07/08 08:38:34;;;;;;;3.60;1.17;;;19.40;65.50;;;;;;5012768;28;20041;-40
2022/07/08 08:41:01;;;;;;;5.43;1.02;;;19.50;65.30;;;;;;5011590;28;20034;-39
2022/07/08 08:43:28;;;;;;;4.18;1.10;;;19.60;65.10;;;;;;5012976;28;20362;-39
2022/07/08 08:45:54;;;;;;;4.38;1.00;;;19.60;65.00;;;;;;5011467;28;20030;-39
2022/07/08 08:48:24;;;;;;;4.47;1.45;;;19.60;64.80;;;;;;5012496;28;20034;-39
2022/07/08 08:50:54;;;;;;;3.25;1.00;;;19.70;64.80;;;;;;5012537;28;20030;-40
2022/07/08 08:53:29;;;;;;;3.97;1.30;;;19.80;64.60;;;;;;5012598;28;20030;-38
2022/07/08 08:55:55;;;;;;;5.32;1.17;;;20.00;64.50;;;;;;5012202;28;20101;-38
2022/07/08 08:58:21;;;;;;;3.13;1.30;;;20.00;64.20;;;;;;5012742;28;20500;-39
2022/07/08 09:00:47;;;;;;;3.53;1.15;;;20.00;64.20;;;;;;5012427;28;20041;-40
2022/07/08 09:03:13;;;;;;;3.65;1.20;;;20.10;64.10;;;;;;5012162;28;20040;-37
2022/07/08 09:05:38;;;;;;;4.63;1.27;;;20.20;64.10;;;;;;5015292;28;20033;-39
2022/07/08 09:08:04;;;;;;;3.22;0.82;;;20.30;64.10;;;;;;5015879;28;20449;-39
2022/07/08 09:10:30;;;;;;;4.30;1.17;;;20.40;64.10;;;;;;5016024;28;20501;-40
2022/07/08 09:13:01;;;;;;;3.95;1.35;;;20.50;64.00;;;;;;5014567;28;20025;-39
2022/07/08 09:15:34;;;;;;;3.53;1.15;;;20.70;63.80;;;;;;5015982;28;20422;-40
2022/07/08 09:18:00;;;;;;;;;;;20.80;63.70;;;;;;5016904;28;20038;-38
2022/07/08 09:20:26;;;;;;;2.10;0.90;;;20.90;63.50;;;;;;5016212;28;20039;-39
2022/07/08 09:22:52;;;;;;;3.47;1.13;;;20.90;63.30;;;;;;5014790;28;20030;-39
2022/07/08 09:25:17;;;;;;;3.13;1.02;;;21.10;63.20;;;;;;5016016;28;20453;-40
2022/07/08 09:27:44;;;;;;;3.78;1.20;;;21.10;63.00;;;;;;5015649;28;20088;-40
2022/07/08 09:30:09;;;;;;;5.25;1.20;;;21.20;62.70;;;;;;5015352;28;20112;-40
2022/07/08 09:32:35;;;;;;;4.55;1.20;;;21.30;62.60;;;;;;5015423;28;20018;-40
2022/07/08 09:35:01;;;;;;;3.38;1.40;;;21.50;62.40;;;;;;5015353;28;20030;-45
2022/07/08 09:37:31;;;;;;;3.25;1.25;;;21.60;62.20;;;;;;5014169;28;20033;-39
2022/07/08 09:39:56;;;;;;;5.53;1.27;;;21.70;61.90;;;;;;5015754;28;20088;-40
2022/07/08 09:42:22;;;;;;;2.40;0.98;;;21.80;61.40;;;;;;5016167;28;20054;-39
2022/07/08 09:44:51;;;;;;;2.15;1.00;;;22.00;61.40;;;;;;5015492;28;20083;-39
2022/07/08 09:47:17;;;;;;;3.03;1.10;;;22.00;61.00;;;;;;5015630;28;20139;-39
2022/07/08 09:49:45;;;;;;;5.07;1.30;;;22.00;60.70;;;;;;5015368;28;20117;-40
2022/07/08 09:52:11;;;;;;;2.25;1.10;;;22.00;60.40;;;;;;5015300;28;20398;-40
2022/07/08 09:54:37;;;;;;;2.65;1.00;;;22.00;60.50;;;;;;5014975;28;20030;-40
2022/07/08 09:57:08;;;;;;;2.63;1.08;;;22.00;60.40;;;;;;5014854;28;20577;-39
2022/07/08 09:59:35;;;;;;;3.28;1.00;;;22.00;60.30;;;;;;5014827;28;20045;-39
2022/07/08 10:02:02;;;;;;;5.18;1.40;;;22.10;60.90;;;;;;5015158;28;20421;-38
2022/07/08 10:04:28;;;;;;;3.70;1.08;;;22.10;60.20;;;;;;5015033;28;20504;-39
2022/07/08 10:06:56;;;;;;;3.30;0.85;;;22.10;60.30;;;;;;5015244;28;20469;-40
2022/07/08 10:09:24;;;;;;;3.72;1.05;;;22.00;60.30;;;;;;5014933;28;20088;-40
2022/07/08 10:11:50;;;;;;;3.00;0.90;;;22.00;60.10;;;;;;5014678;28;20018;-39
2022/07/08 10:14:17;;;;;;;5.32;1.25;;;22.00;60.10;;;;;;5014480;28;20053;-39
2022/07/08 10:16:45;;;;;;;1.88;0.98;;;22.00;60.00;;;;;;5013699;28;20401;-50
2022/07/08 10:19:21;;;;;;;3.78;1.30;;;22.10;60.00;;;;;;5014319;28;20072;-39
2022/07/08 10:21:53;;;;;;;2.47;0.98;;;22.20;59.80;;;;;;5014438;28;20021;-39
2022/07/08 10:24:24;;;;;;;4.50;1.17;;;22.30;59.60;;;;;;5014462;28;20101;-38
2022/07/08 10:26:50;;;;;;;3.78;1.45;;;22.30;59.40;;;;;;5014403;28;20053;-37
2022/07/08 10:29:16;;;;;;;5.00;1.58;;;22.30;59.20;;;;;;5014279;28;20431;-39
2022/07/08 10:31:51;;;;;;;2.83;1.10;;;22.30;59.00;;;;;;5014988;28;20018;-39
2022/07/08 10:34:22;;;;;;;2.97;1.20;;;22.30;59.20;;;;;;5014743;28;20022;-39
2022/07/08 10:36:50;;;;;;;3.42;1.17;;;22.30;59.20;;;;;;5014430;28;20069;-40
2022/07/08 10:39:46;;;;;;;2.38;1.10;;;22.30;59.20;;;;;;5014594;28;20026;-38
2022/07/08 10:42:11;;;;;;;3.08;1.08;;;22.40;59.70;;;;;;5014589;28;20036;-39
2022/07/08 10:44:43;;;;;;;3.47;1.13;;;22.40;59.10;;;;;;5014258;28;20116;-40
2022/07/08 10:47:14;;;;;;;2.65;1.08;;;22.40;59.00;;;;;;5012812;28;20116;-39
2022/07/08 10:49:47;;;;;;;1.60;0.80;;;22.50;59.10;;;;;;5013984;28;20033;-40
2022/07/08 10:52:15;;;;;;;1.50;0.85;;;22.60;59.10;;;;;;5013994;28;20091;-40
2022/07/08 10:54:42;;;;;;;2.15;1.00;;;22.70;59.00;;;;;;5014259;28;20067;-39
2022/07/08 10:57:10;;;;;;;4.85;1.13;;;22.80;58.80;;;;;;5013977;28;20029;-40
2022/07/08 10:59:37;;;;;;;3.45;1.10;;;22.90;58.70;;;;;;5013955;28;20029;-39
2022/07/08 11:02:03;;;;;;;2.97;1.08;;;22.90;58.60;;;;;;5013994;28;20022;-39
2022/07/08 11:04:28;;;;;;;1.98;0.90;;;23.00;58.40;;;;;;5013778;28;20049;-39
2022/07/08 11:06:56;;;;;;;3.40;1.27;;;23.00;58.40;;;;;;5013731;28;20033;-39
2022/07/08 11:09:23;;;;;;;1.85;0.90;;;23.00;58.30;;;;;;5013537;28;20037;-40
2022/07/08 11:11:49;;;;;;;1.88;1.05;;;23.10;58.20;;;;;;5013818;28;20049;-40
2022/07/08 11:14:15;;;;;;;3.40;1.15;;;23.20;58.00;;;;;;5013596;28;20491;-39
2022/07/08 11:16:41;;;;;;;3.30;1.48;;;23.30;57.70;;;;;;5013548;28;20112;-38
2022/07/08 11:19:08;;;;;;;2.70;1.10;;;23.30;57.70;;;;;;5013694;28;20144;-39
2022/07/08 11:21:34;;;;;;;2.92;1.15;;;23.40;57.70;;;;;;5011992;28;20399;-39
2022/07/08 11:23:59;;;;;;;6.68;1.17;;;23.50;57.50;;;;;;5013215;28;20450;-38
2022/07/08 11:26:25;;;;;;;4.28;1.20;;;23.50;57.30;;;;;;5013236;28;20022;-44
2022/07/08 11:28:51;;;;;;;3.97;1.13;;;23.60;57.20;;;;;;5013669;28;20029;-39
2022/07/08 11:31:23;;;;;;;2.05;1.08;;;23.60;57.10;;;;;;5013146;28;20378;-39
2022/07/08 11:33:49;;;;;;;2.30;1.20;;;23.70;57.00;;;;;;5013596;28;20026;-39
2022/07/08 11:36:16;;;;;;;2.22;1.20;;;23.70;56.90;;;;;;5013376;28;20394;-39
2022/07/08 11:38:42;;;;;;;2.22;1.17;;;23.80;56.80;;;;;;5013157;28;20030;-39
2022/07/08 11:41:07;;;;;;;2.45;1.15;;;23.90;56.90;;;;;;5013514;28;20053;-39
2022/07/08 11:43:33;;;;;;;4.47;1.60;;;23.90;56.80;;;;;;5011856;28;20018;-40
2022/07/08 11:45:59;;;;;;;2.72;1.10;;;24.00;56.60;;;;;;5012998;28;20184;-39
2022/07/08 11:48:45;;;;;;;3.92;1.40;;;24.00;56.60;;;;;;5012901;28;20037;-39
2022/07/08 11:51:14;;;;;;;2.70;1.23;;;24.10;56.20;;;;;;5012879;28;20038;-39
2022/07/08 11:53:40;;;;;;;4.10;1.45;;;24.10;56.20;;;;;;5012878;28;20036;-39
2022/07/08 11:56:06;;;;;;;6.15;1.50;;;24.20;56.20;;;;;;5012811;28;20022;-32
2022/07/08 11:58:32;;;;;;;4.22;1.35;;;24.10;56.20;;;;;;5012767;28;20096;-29
2022/07/08 12:00:57;;;;;;;2.58;1.30;;;24.10;56.40;;;;;;5012794;28;20042;-30
2022/07/08 12:03:25;;;;;;;2.90;1.17;;;24.10;56.60;;;;;;5012810;28;20102;-29
2022/07/08 12:05:51;;;;;;;2.55;1.27;;;24.20;57.20;;;;;;5012695;28;20026;-29
2022/07/08 12:08:18;;;;;;;3.25;1.20;;;24.30;56.50;;;;;;5012476;28;20034;-30
2022/07/08 12:10:44;;;;;;;1.58;1.08;;;24.40;56.40;;;;;;5012790;28;20427;-46
2022/07/08 12:13:10;;;;;;;3.63;1.02;;;24.40;56.40;;;;;;5012936;28;20022;-49
2022/07/08 12:15:37;;;;;;;2.78;1.10;;;24.50;56.40;;;;;;5012716;28;20496;-47
2022/07/08 12:18:04;;;;;;;4.65;1.85;;;24.50;56.40;;;;;;5012385;28;20018;-46
2022/07/08 12:20:37;;;;;;;1.55;1.00;;;24.50;56.10;;;;;;5012618;28;20125;-46
2022/07/08 12:23:03;;;;;;;4.80;1.63;;;24.60;56.10;;;;;;5013002;28;20042;-47
2022/07/08 12:25:48;;;;;;;3.60;1.33;;;24.70;56.10;;;;;;5012651;28;20026;-30
2022/07/08 12:28:21;;;;;;;2.85;1.10;;;24.80;55.90;;;;;;5012725;28;20029;-30
2022/07/08 12:30:47;;;;;;;2.78;1.25;;;24.70;55.80;;;;;;5012713;28;20097;-30
2022/07/08 12:33:12;;;;;;;2.45;1.30;;;24.70;56.00;;;;;;5012503;28;20490;-37
2022/07/08 12:35:38;;;;;;;2.90;1.27;;;24.70;56.30;;;;;;5012581;28;20450;-31
2022/07/08 12:38:05;;;;;;;3.17;1.17;;;24.70;56.30;;;;;;5012320;28;20095;-30
2022/07/08 12:40:40;;;;;;;4.30;1.67;;;24.70;56.40;;;;;;5015380;28;20026;-37
2022/07/08 12:43:11;;;;;;;5.47;1.88;;;24.60;56.40;;;;;;5014953;28;20164;-30
2022/07/08 12:45:37;;;;;;;4.95;1.45;;;24.50;56.50;;;;;;5016813;28;20131;-31
2022/07/08 12:48:03;;;;;;;4.57;1.60;;;24.40;56.70;;;;;;5016344;28;20026;-33
2022/07/08 12:50:31;;;;;;;3.03;1.30;;;24.40;56.80;;;;;;5016445;28;20125;-30